Terminal Aerodrome Forecast
Issued by NWS Bismarck, ND

Home | Current Version | Previous Version | Graphics & Text | Print | Product List | Glossary On
Versions: 1 2 3 4 5 6 7 8 9 10 11 12 13 14 15 16
784
FTUS43 KBIS 280521
TAFISN
TAF
KISN 280521Z 2806/2906 03004KT P6SM BKN025
     FM281200 06004KT 6SM BR BKN035
     FM281400 10004KT P6SM SCT035 BKN080
     FM281900 09005KT P6SM SCT035=

USA.gov is the U.S. government's official web portal to all federal, state and local government web resources and services.